sensor_id;sensor_type;location;lat;lon;timestamp;P1;P2;P0
51052;PMS5003;37093;37.716;-122.060;2023-06-10T00:01:17;1;1;
51052;PMS5003;37093;37.716;-122.060;2023-06-10T00:03:46;2;2;
51052;PMS5003;37093;37.716;-122.060;2023-06-10T00:06:14;2;1;
51052;PMS5003;37093;37.716;-122.060;2023-06-10T00:08:43;2;2;
51052;PMS5003;37093;37.716;-122.060;2023-06-10T00:11:11;3;2;
51052;PMS5003;37093;37.716;-122.060;2023-06-10T00:13:40;1;1;
51052;PMS5003;37093;37.716;-122.060;2023-06-10T00:16:09;2;2;
51052;PMS5003;37093;37.716;-122.060;2023-06-10T00:18:37;1;1;
51052;PMS5003;37093;37.716;-122.060;2023-06-10T00:21:05;1;1;
51052;PMS5003;37093;37.716;-122.060;2023-06-10T00:23:34;1;1;
51052;PMS5003;37093;37.716;-122.060;2023-06-10T00:26:03;2;2;
51052;PMS5003;37093;37.716;-122.060;2023-06-10T00:28:32;2;2;
51052;PMS5003;37093;37.716;-122.060;2023-06-10T00:31:00;1;1;
51052;PMS5003;37093;37.716;-122.060;2023-06-10T00:33:29;1;1;
51052;PMS5003;37093;37.716;-122.060;2023-06-10T00:35:57;1;1;
51052;PMS5003;37093;37.716;-122.060;2023-06-10T00:38:26;0;0;
51052;PMS5003;37093;37.716;-122.060;2023-06-10T00:40:54;1;1;
51052;PMS5003;37093;37.716;-122.060;2023-06-10T00:43:24;3;1;
51052;PMS5003;37093;37.716;-122.060;2023-06-10T00:45:52;2;1;
51052;PMS5003;37093;37.716;-122.060;2023-06-10T00:48:21;4;2;
51052;PMS5003;37093;37.716;-122.060;2023-06-10T00:50:49;1;1;
51052;PMS5003;37093;37.716;-122.060;2023-06-10T00:53:18;1;1;
51052;PMS5003;37093;37.716;-122.060;2023-06-10T00:55:48;1;1;
51052;PMS5003;37093;37.716;-122.060;2023-06-10T00:58:17;1;1;
51052;PMS5003;37093;37.716;-122.060;2023-06-10T01:00:45;1;1;
51052;PMS5003;37093;37.716;-122.060;2023-06-10T01:03:14;1;1;
51052;PMS5003;37093;37.716;-122.060;2023-06-10T01:05:42;1;1;
51052;PMS5003;37093;37.716;-122.060;2023-06-10T01:08:15;3;1;
51052;PMS5003;37093;37.716;-122.060;2023-06-10T01:11:03;2;2;
51052;PMS5003;37093;37.716;-122.060;2023-06-10T01:13:35;2;2;
51052;PMS5003;37093;37.716;-122.060;2023-06-10T01:16:06;2;2;
51052;PMS5003;37093;37.716;-122.060;2023-06-10T01:18:35;0;0;
51052;PMS5003;37093;37.716;-122.060;2023-06-10T01:21:04;1;1;
51052;PMS5003;37093;37.716;-122.060;2023-06-10T01:23:32;2;2;
51052;PMS5003;37093;37.716;-122.060;2023-06-10T01:26:02;1;1;
51052;PMS5003;37093;37.716;-122.060;2023-06-10T01:28:35;1;1;
51052;PMS5003;37093;37.716;-122.060;2023-06-10T01:31:11;1;1;
51052;PMS5003;37093;37.716;-122.060;2023-06-10T01:33:43;2;2;
51052;PMS5003;37093;37.716;-122.060;2023-06-10T01:36:15;1;1;
51052;PMS5003;37093;37.716;-122.060;2023-06-10T01:38:44;1;1;
51052;PMS5003;37093;37.716;-122.060;2023-06-10T01:41:15;0;0;
51052;PMS5003;37093;37.716;-122.060;2023-06-10T01:43:45;1;1;
51052;PMS5003;37093;37.716;-122.060;2023-06-10T01:46:14;1;1;
51052;PMS5003;37093;37.716;-122.060;2023-06-10T01:48:42;1;1;
51052;PMS5003;37093;37.716;-122.060;2023-06-10T01:51:11;1;1;
51052;PMS5003;37093;37.716;-122.060;2023-06-10T01:53:39;0;0;
51052;PMS5003;37093;37.716;-122.060;2023-06-10T01:56:08;1;1;
51052;PMS5003;37093;37.716;-122.060;2023-06-10T01:58:36;0;0;
51052;PMS5003;37093;37.716;-122.060;2023-06-10T02:01:05;1;1;
51052;PMS5003;37093;37.716;-122.060;2023-06-10T02:03:33;0;0;
51052;PMS5003;37093;37.716;-122.060;2023-06-10T02:06:02;0;0;
51052;PMS5003;37093;37.716;-122.060;2023-06-10T02:08:31;0;0;
51052;PMS5003;37093;37.716;-122.060;2023-06-10T02:10:59;0;0;
51052;PMS5003;37093;37.716;-122.060;2023-06-10T02:13:28;0;0;
51052;PMS5003;37093;37.716;-122.060;2023-06-10T02:15:56;1;1;
51052;PMS5003;37093;37.716;-122.060;2023-06-10T02:18:25;1;0;
51052;PMS5003;37093;37.716;-122.060;2023-06-10T02:20:53;2;1;
51052;PMS5003;37093;37.716;-122.060;2023-06-10T02:23:22;0;0;
51052;PMS5003;37093;37.716;-122.060;2023-06-10T02:25:50;0;0;
51052;PMS5003;37093;37.716;-122.060;2023-06-10T02:28:19;0;0;
51052;PMS5003;37093;37.716;-122.060;2023-06-10T02:30:49;0;0;
51052;PMS5003;37093;37.716;-122.060;2023-06-10T02:33:17;0;0;
51052;PMS5003;37093;37.716;-122.060;2023-06-10T02:35:46;0;0;
51052;PMS5003;37093;37.716;-122.060;2023-06-10T02:38:14;0;0;
51052;PMS5003;37093;37.716;-122.060;2023-06-10T02:40:43;0;0;
51052;PMS5003;37093;37.716;-122.060;2023-06-10T02:43:12;0;0;
51052;PMS5003;37093;37.716;-122.060;2023-06-10T02:45:41;0;0;
51052;PMS5003;37093;37.716;-122.060;2023-06-10T02:48:10;1;1;
51052;PMS5003;37093;37.716;-122.060;2023-06-10T02:50:38;0;0;
51052;PMS5003;37093;37.716;-122.060;2023-06-10T02:53:07;0;0;
51052;PMS5003;37093;37.716;-122.060;2023-06-10T02:55:35;0;0;
51052;PMS5003;37093;37.716;-122.060;2023-06-10T02:58:04;0;0;
51052;PMS5003;37093;37.716;-122.060;2023-06-10T03:00:32;1;1;
51052;PMS5003;37093;37.716;-122.060;2023-06-10T03:03:01;1;0;
51052;PMS5003;37093;37.716;-122.060;2023-06-10T03:05:29;1;1;
51052;PMS5003;37093;37.716;-122.060;2023-06-10T03:07:58;1;0;
51052;PMS5003;37093;37.716;-122.060;2023-06-10T03:10:26;0;0;
51052;PMS5003;37093;37.716;-122.060;2023-06-10T03:12:55;0;0;
51052;PMS5003;37093;37.716;-122.060;2023-06-10T03:15:23;0;0;
51052;PMS5003;37093;37.716;-122.060;2023-06-10T03:17:52;0;0;
51052;PMS5003;37093;37.716;-122.060;2023-06-10T03:20:20;0;0;
51052;PMS5003;37093;37.716;-122.060;2023-06-10T03:22:49;0;0;
51052;PMS5003;37093;37.716;-122.060;2023-06-10T03:25:18;0;0;
51052;PMS5003;37093;37.716;-122.060;2023-06-10T03:27:46;1;1;
51052;PMS5003;37093;37.716;-122.060;2023-06-10T03:30:15;0;0;
51052;PMS5003;37093;37.716;-122.060;2023-06-10T03:32:44;0;0;
51052;PMS5003;37093;37.716;-122.060;2023-06-10T03:35:12;0;0;
51052;PMS5003;37093;37.716;-122.060;2023-06-10T03:37:40;0;0;
51052;PMS5003;37093;37.716;-122.060;2023-06-10T03:40:09;0;0;
51052;PMS5003;37093;37.716;-122.060;2023-06-10T03:42:37;0;0;
51052;PMS5003;37093;37.716;-122.060;2023-06-10T03:45:06;0;0;
51052;PMS5003;37093;37.716;-122.060;2023-06-10T03:47:37;0;0;
51052;PMS5003;37093;37.716;-122.060;2023-06-10T03:50:05;0;0;
51052;PMS5003;37093;37.716;-122.060;2023-06-10T03:52:34;0;0;
51052;PMS5003;37093;37.716;-122.060;2023-06-10T03:55:03;0;0;
51052;PMS5003;37093;37.716;-122.060;2023-06-10T03:57:32;1;1;
51052;PMS5003;37093;37.716;-122.060;2023-06-10T04:00:01;2;1;
51052;PMS5003;37093;37.716;-122.060;2023-06-10T04:02:29;1;1;
51052;PMS5003;37093;37.716;-122.060;2023-06-10T04:04:58;2;1;
51052;PMS5003;37093;37.716;-122.060;2023-06-10T04:07:26;1;1;
51052;PMS5003;37093;37.716;-122.060;2023-06-10T04:09:55;2;1;
51052;PMS5003;37093;37.716;-122.060;2023-06-10T04:12:23;1;1;
51052;PMS5003;37093;37.716;-122.060;2023-06-10T04:14:52;3;2;
51052;PMS5003;37093;37.716;-122.060;2023-06-10T04:17:20;3;2;
51052;PMS5003;37093;37.716;-122.060;2023-06-10T04:19:49;1;1;
51052;PMS5003;37093;37.716;-122.060;2023-06-10T04:22:18;3;2;
51052;PMS5003;37093;37.716;-122.060;2023-06-10T04:24:46;0;0;
51052;PMS5003;37093;37.716;-122.060;2023-06-10T04:27:15;1;1;
51052;PMS5003;37093;37.716;-122.060;2023-06-10T04:29:43;1;1;
51052;PMS5003;37093;37.716;-122.060;2023-06-10T04:32:12;1;1;
51052;PMS5003;37093;37.716;-122.060;2023-06-10T04:34:41;1;1;
51052;PMS5003;37093;37.716;-122.060;2023-06-10T04:37:10;1;1;
51052;PMS5003;37093;37.716;-122.060;2023-06-10T04:39:38;0;0;
51052;PMS5003;37093;37.716;-122.060;2023-06-10T04:42:07;2;1;
51052;PMS5003;37093;37.716;-122.060;2023-06-10T04:44:35;0;0;
51052;PMS5003;37093;37.716;-122.060;2023-06-10T04:47:04;1;1;
51052;PMS5003;37093;37.716;-122.060;2023-06-10T04:49:33;1;1;
51052;PMS5003;37093;37.716;-122.060;2023-06-10T04:52:01;0;0;
51052;PMS5003;37093;37.716;-122.060;2023-06-10T04:54:30;1;1;
51052;PMS5003;37093;37.716;-122.060;2023-06-10T04:56:59;1;1;
51052;PMS5003;37093;37.716;-122.060;2023-06-10T04:59:28;1;1;
51052;PMS5003;37093;37.716;-122.060;2023-06-10T05:01:56;0;0;
51052;PMS5003;37093;37.716;-122.060;2023-06-10T05:04:25;1;1;
51052;PMS5003;37093;37.716;-122.060;2023-06-10T05:06:53;1;1;
51052;PMS5003;37093;37.716;-122.060;2023-06-10T05:09:22;0;0;
51052;PMS5003;37093;37.716;-122.060;2023-06-10T05:11:50;1;1;
51052;PMS5003;37093;37.716;-122.060;2023-06-10T05:14:18;2;0;
51052;PMS5003;37093;37.716;-122.060;2023-06-10T05:16:47;1;1;
51052;PMS5003;37093;37.716;-122.060;2023-06-10T05:19:15;1;1;
51052;PMS5003;37093;37.716;-122.060;2023-06-10T05:21:44;1;1;
51052;PMS5003;37093;37.716;-122.060;2023-06-10T05:24:12;0;0;
51052;PMS5003;37093;37.716;-122.060;2023-06-10T05:26:41;1;1;
51052;PMS5003;37093;37.716;-122.060;2023-06-10T05:29:09;1;1;
51052;PMS5003;37093;37.716;-122.060;2023-06-10T05:31:38;2;2;
51052;PMS5003;37093;37.716;-122.060;2023-06-10T05:34:06;1;1;
51052;PMS5003;37093;37.716;-122.060;2023-06-10T05:36:35;0;0;
51052;PMS5003;37093;37.716;-122.060;2023-06-10T05:39:03;0;0;
51052;PMS5003;37093;37.716;-122.060;2023-06-10T05:41:32;3;3;
51052;PMS5003;37093;37.716;-122.060;2023-06-10T05:44:00;2;2;
51052;PMS5003;37093;37.716;-122.060;2023-06-10T05:46:29;2;2;
51052;PMS5003;37093;37.716;-122.060;2023-06-10T05:48:58;1;1;
51052;PMS5003;37093;37.716;-122.060;2023-06-10T05:51:27;1;1;
51052;PMS5003;37093;37.716;-122.060;2023-06-10T05:53:55;2;2;
51052;PMS5003;37093;37.716;-122.060;2023-06-10T05:56:23;5;3;
51052;PMS5003;37093;37.716;-122.060;2023-06-10T05:58:52;2;2;
51052;PMS5003;37093;37.716;-122.060;2023-06-10T06:01:20;3;2;
51052;PMS5003;37093;37.716;-122.060;2023-06-10T06:03:49;3;1;
51052;PMS5003;37093;37.716;-122.060;2023-06-10T06:06:18;4;2;
51052;PMS5003;37093;37.716;-122.060;2023-06-10T06:08:46;0;0;
51052;PMS5003;37093;37.716;-122.060;2023-06-10T06:11:15;2;2;
51052;PMS5003;37093;37.716;-122.060;2023-06-10T06:13:43;2;2;
51052;PMS5003;37093;37.716;-122.060;2023-06-10T06:16:11;1;0;
51052;PMS5003;37093;37.716;-122.060;2023-06-10T06:18:40;2;2;
51052;PMS5003;37093;37.716;-122.060;2023-06-10T06:21:08;2;2;
51052;PMS5003;37093;37.716;-122.060;2023-06-10T06:23:37;3;3;
51052;PMS5003;37093;37.716;-122.060;2023-06-10T06:26:05;2;2;
51052;PMS5003;37093;37.716;-122.060;2023-06-10T06:28:34;2;2;
51052;PMS5003;37093;37.716;-122.060;2023-06-10T06:31:02;5;3;
51052;PMS5003;37093;37.716;-122.060;2023-06-10T06:33:31;1;1;
51052;PMS5003;37093;37.716;-122.060;2023-06-10T06:36:00;3;3;
51052;PMS5003;37093;37.716;-122.060;2023-06-10T06:38:28;2;2;
51052;PMS5003;37093;37.716;-122.060;2023-06-10T06:40:57;2;2;
51052;PMS5003;37093;37.716;-122.060;2023-06-10T06:43:25;1;1;
51052;PMS5003;37093;37.716;-122.060;2023-06-10T06:45:54;3;2;
51052;PMS5003;37093;37.716;-122.060;2023-06-10T06:48:22;2;2;
51052;PMS5003;37093;37.716;-122.060;2023-06-10T06:50:51;0;0;
51052;PMS5003;37093;37.716;-122.060;2023-06-10T06:53:20;1;1;
51052;PMS5003;37093;37.716;-122.060;2023-06-10T06:55:48;1;1;
51052;PMS5003;37093;37.716;-122.060;2023-06-10T06:58:16;3;3;
51052;PMS5003;37093;37.716;-122.060;2023-06-10T07:01:07;2;2;
51052;PMS5003;37093;37.716;-122.060;2023-06-10T07:03:36;1;1;
51052;PMS5003;37093;37.716;-122.060;2023-06-10T07:06:05;2;2;
51052;PMS5003;37093;37.716;-122.060;2023-06-10T07:08:33;2;2;
51052;PMS5003;37093;37.716;-122.060;2023-06-10T07:11:01;3;3;
51052;PMS5003;37093;37.716;-122.060;2023-06-10T07:13:30;2;2;
51052;PMS5003;37093;37.716;-122.060;2023-06-10T07:15:59;2;1;
51052;PMS5003;37093;37.716;-122.060;2023-06-10T07:18:27;2;2;
51052;PMS5003;37093;37.716;-122.060;2023-06-10T07:20:56;2;2;
51052;PMS5003;37093;37.716;-122.060;2023-06-10T07:23:24;1;1;
51052;PMS5003;37093;37.716;-122.060;2023-06-10T07:25:53;3;2;
51052;PMS5003;37093;37.716;-122.060;2023-06-10T07:28:21;3;1;
51052;PMS5003;37093;37.716;-122.060;2023-06-10T07:30:50;3;1;
51052;PMS5003;37093;37.716;-122.060;2023-06-10T07:33:18;2;2;
51052;PMS5003;37093;37.716;-122.060;2023-06-10T07:35:47;1;1;
51052;PMS5003;37093;37.716;-122.060;2023-06-10T07:38:17;0;0;
51052;PMS5003;37093;37.716;-122.060;2023-06-10T07:40:46;2;2;
51052;PMS5003;37093;37.716;-122.060;2023-06-10T07:43:14;3;3;
51052;PMS5003;37093;37.716;-122.060;2023-06-10T07:45:43;4;3;
51052;PMS5003;37093;37.716;-122.060;2023-06-10T07:48:11;1;1;
51052;PMS5003;37093;37.716;-122.060;2023-06-10T07:50:40;5;2;
51052;PMS5003;37093;37.716;-122.060;2023-06-10T07:53:09;4;1;
51052;PMS5003;37093;37.716;-122.060;2023-06-10T07:55:38;2;2;
51052;PMS5003;37093;37.716;-122.060;2023-06-10T07:58:06;1;1;
51052;PMS5003;37093;37.716;-122.060;2023-06-10T08:00:34;4;4;
51052;PMS5003;37093;37.716;-122.060;2023-06-10T08:03:03;2;2;
51052;PMS5003;37093;37.716;-122.060;2023-06-10T08:05:31;2;2;
51052;PMS5003;37093;37.716;-122.060;2023-06-10T08:08:00;3;3;
51052;PMS5003;37093;37.716;-122.060;2023-06-10T08:10:28;5;5;
51052;PMS5003;37093;37.716;-122.060;2023-06-10T08:12:57;1;1;
51052;PMS5003;37093;37.716;-122.060;2023-06-10T08:15:26;1;1;
51052;PMS5003;37093;37.716;-122.060;2023-06-10T08:17:54;3;3;
51052;PMS5003;37093;37.716;-122.060;2023-06-10T08:20:23;3;1;
51052;PMS5003;37093;37.716;-122.060;2023-06-10T08:22:51;4;1;
51052;PMS5003;37093;37.716;-122.060;2023-06-10T08:25:20;3;3;
51052;PMS5003;37093;37.716;-122.060;2023-06-10T08:27:48;3;3;
51052;PMS5003;37093;37.716;-122.060;2023-06-10T08:30:17;4;3;
51052;PMS5003;37093;37.716;-122.060;2023-06-10T08:32:46;2;2;
51052;PMS5003;37093;37.716;-122.060;2023-06-10T08:35:14;4;2;
51052;PMS5003;37093;37.716;-122.060;2023-06-10T08:37:43;1;1;
51052;PMS5003;37093;37.716;-122.060;2023-06-10T08:40:12;5;4;
51052;PMS5003;37093;37.716;-122.060;2023-06-10T08:42:43;3;1;
51052;PMS5003;37093;37.716;-122.060;2023-06-10T08:45:16;2;2;
51052;PMS5003;37093;37.716;-122.060;2023-06-10T08:47:45;5;3;
51052;PMS5003;37093;37.716;-122.060;2023-06-10T08:50:15;2;2;
51052;PMS5003;37093;37.716;-122.060;2023-06-10T08:52:46;2;2;
51052;PMS5003;37093;37.716;-122.060;2023-06-10T08:55:21;5;2;
51052;PMS5003;37093;37.716;-122.060;2023-06-10T08:57:54;2;2;
51052;PMS5003;37093;37.716;-122.060;2023-06-10T09:00:23;1;1;
51052;PMS5003;37093;37.716;-122.060;2023-06-10T09:02:54;2;2;
51052;PMS5003;37093;37.716;-122.060;2023-06-10T09:05:22;3;3;
51052;PMS5003;37093;37.716;-122.060;2023-06-10T09:07:51;3;3;
51052;PMS5003;37093;37.716;-122.060;2023-06-10T09:10:20;4;2;
51052;PMS5003;37093;37.716;-122.060;2023-06-10T09:12:48;5;4;
51052;PMS5003;37093;37.716;-122.060;2023-06-10T09:15:17;4;3;
51052;PMS5003;37093;37.716;-122.060;2023-06-10T09:17:45;6;4;
51052;PMS5003;37093;37.716;-122.060;2023-06-10T09:20:14;4;4;
51052;PMS5003;37093;37.716;-122.060;2023-06-10T09:22:43;4;2;
51052;PMS5003;37093;37.716;-122.060;2023-06-10T09:25:12;3;3;
51052;PMS5003;37093;37.716;-122.060;2023-06-10T09:27:44;4;4;
51052;PMS5003;37093;37.716;-122.060;2023-06-10T09:30:20;3;3;
51052;PMS5003;37093;37.716;-122.060;2023-06-10T09:32:52;3;3;
51052;PMS5003;37093;37.716;-122.060;2023-06-10T09:35:21;3;3;
51052;PMS5003;37093;37.716;-122.060;2023-06-10T09:37:50;4;4;
51052;PMS5003;37093;37.716;-122.060;2023-06-10T09:40:20;4;3;
51052;PMS5003;37093;37.716;-122.060;2023-06-10T09:42:52;4;4;
51052;PMS5003;37093;37.716;-122.060;2023-06-10T09:45:21;7;6;
51052;PMS5003;37093;37.716;-122.060;2023-06-10T09:47:51;5;3;
51052;PMS5003;37093;37.716;-122.060;2023-06-10T09:50:20;5;4;
51052;PMS5003;37093;37.716;-122.060;2023-06-10T09:52:48;6;4;
51052;PMS5003;37093;37.716;-122.060;2023-06-10T09:55:17;5;5;
51052;PMS5003;37093;37.716;-122.060;2023-06-10T09:57:45;4;4;
51052;PMS5003;37093;37.716;-122.060;2023-06-10T10:00:25;5;4;
51052;PMS5003;37093;37.716;-122.060;2023-06-10T10:02:53;4;4;
51052;PMS5003;37093;37.716;-122.060;2023-06-10T10:05:22;4;3;
51052;PMS5003;37093;37.716;-122.060;2023-06-10T10:07:50;2;2;
51052;PMS5003;37093;37.716;-122.060;2023-06-10T10:10:19;4;4;
51052;PMS5003;37093;37.716;-122.060;2023-06-10T10:12:50;5;5;
51052;PMS5003;37093;37.716;-122.060;2023-06-10T10:15:21;3;3;
51052;PMS5003;37093;37.716;-122.060;2023-06-10T10:17:52;8;7;
51052;PMS5003;37093;37.716;-122.060;2023-06-10T10:20:26;6;5;
51052;PMS5003;37093;37.716;-122.060;2023-06-10T10:22:57;6;4;
51052;PMS5003;37093;37.716;-122.060;2023-06-10T10:25:27;8;5;
51052;PMS5003;37093;37.716;-122.060;2023-06-10T10:27:58;7;6;
51052;PMS5003;37093;37.716;-122.060;2023-06-10T10:30:33;4;4;
51052;PMS5003;37093;37.716;-122.060;2023-06-10T10:33:09;4;4;
51052;PMS5003;37093;37.716;-122.060;2023-06-10T10:35:42;4;4;
51052;PMS5003;37093;37.716;-122.060;2023-06-10T10:38:12;4;4;
51052;PMS5003;37093;37.716;-122.060;2023-06-10T10:40:40;4;4;
51052;PMS5003;37093;37.716;-122.060;2023-06-10T10:43:11;6;6;
51052;PMS5003;37093;37.716;-122.060;2023-06-10T10:45:40;5;4;
51052;PMS5003;37093;37.716;-122.060;2023-06-10T10:48:08;5;5;
51052;PMS5003;37093;37.716;-122.060;2023-06-10T10:50:38;8;6;
51052;PMS5003;37093;37.716;-122.060;2023-06-10T10:53:06;7;6;
51052;PMS5003;37093;37.716;-122.060;2023-06-10T10:55:34;5;4;
51052;PMS5003;37093;37.716;-122.060;2023-06-10T10:58:03;5;4;
51052;PMS5003;37093;37.716;-122.060;2023-06-10T11:00:34;3;3;
51052;PMS5003;37093;37.716;-122.060;2023-06-10T11:03:05;9;5;
51052;PMS5003;37093;37.716;-122.060;2023-06-10T11:05:38;5;5;
51052;PMS5003;37093;37.716;-122.060;2023-06-10T11:08:08;4;4;
51052;PMS5003;37093;37.716;-122.060;2023-06-10T11:10:38;3;3;
51052;PMS5003;37093;37.716;-122.060;2023-06-10T11:13:07;4;4;
51052;PMS5003;37093;37.716;-122.060;2023-06-10T11:15:39;6;4;
51052;PMS5003;37093;37.716;-122.060;2023-06-10T11:18:13;5;3;
51052;PMS5003;37093;37.716;-122.060;2023-06-10T11:20:55;5;4;
51052;PMS5003;37093;37.716;-122.060;2023-06-10T11:23:26;5;4;
51052;PMS5003;37093;37.716;-122.060;2023-06-10T11:26:11;4;2;
51052;PMS5003;37093;37.716;-122.060;2023-06-10T11:29:00;7;5;
51052;PMS5003;37093;37.716;-122.060;2023-06-10T11:31:32;6;5;
51052;PMS5003;37093;37.716;-122.060;2023-06-10T11:34:01;4;4;
51052;PMS5003;37093;37.716;-122.060;2023-06-10T11:36:31;6;4;
51052;PMS5003;37093;37.716;-122.060;2023-06-10T11:39:01;5;4;
51052;PMS5003;37093;37.716;-122.060;2023-06-10T11:41:31;4;4;
51052;PMS5003;37093;37.716;-122.060;2023-06-10T11:44:02;6;5;
51052;PMS5003;37093;37.716;-122.060;2023-06-10T11:46:31;5;4;
51052;PMS5003;37093;37.716;-122.060;2023-06-10T11:49:01;9;5;
51052;PMS5003;37093;37.716;-122.060;2023-06-10T11:51:32;4;4;
51052;PMS5003;37093;37.716;-122.060;2023-06-10T11:54:02;6;6;
51052;PMS5003;37093;37.716;-122.060;2023-06-10T11:56:30;7;7;
51052;PMS5003;37093;37.716;-122.060;2023-06-10T11:59:00;3;3;
51052;PMS5003;37093;37.716;-122.060;2023-06-10T12:01:31;6;5;
51052;PMS5003;37093;37.716;-122.060;2023-06-10T12:04:01;6;4;
51052;PMS5003;37093;37.716;-122.060;2023-06-10T12:06:39;7;5;
51052;PMS5003;37093;37.716;-122.060;2023-06-10T12:09:14;4;4;
51052;PMS5003;37093;37.716;-122.060;2023-06-10T12:11:43;6;5;
51052;PMS5003;37093;37.716;-122.060;2023-06-10T12:14:12;5;5;
51052;PMS5003;37093;37.716;-122.060;2023-06-10T12:16:41;6;4;
51052;PMS5003;37093;37.716;-122.060;2023-06-10T12:19:16;5;5;
51052;PMS5003;37093;37.716;-122.060;2023-06-10T12:21:44;10;8;
51052;PMS5003;37093;37.716;-122.060;2023-06-10T12:24:13;11;7;
51052;PMS5003;37093;37.716;-122.060;2023-06-10T12:26:42;6;4;
51052;PMS5003;37093;37.716;-122.060;2023-06-10T12:29:13;10;6;
51052;PMS5003;37093;37.716;-122.060;2023-06-10T12:31:53;9;5;
51052;PMS5003;37093;37.716;-122.060;2023-06-10T12:34:27;4;3;
51052;PMS5003;37093;37.716;-122.060;2023-06-10T12:36:57;5;5;
51052;PMS5003;37093;37.716;-122.060;2023-06-10T12:39:25;5;3;
51052;PMS5003;37093;37.716;-122.060;2023-06-10T12:41:54;7;6;
51052;PMS5003;37093;37.716;-122.060;2023-06-10T12:44:31;4;4;
51052;PMS5003;37093;37.716;-122.060;2023-06-10T12:47:00;8;6;
51052;PMS5003;37093;37.716;-122.060;2023-06-10T12:49:33;5;4;
51052;PMS5003;37093;37.716;-122.060;2023-06-10T12:52:02;5;5;
51052;PMS5003;37093;37.716;-122.060;2023-06-10T12:54:31;7;5;
51052;PMS5003;37093;37.716;-122.060;2023-06-10T12:57:00;6;4;
51052;PMS5003;37093;37.716;-122.060;2023-06-10T12:59:28;12;8;
51052;PMS5003;37093;37.716;-122.060;2023-06-10T13:01:57;7;4;
51052;PMS5003;37093;37.716;-122.060;2023-06-10T13:04:25;3;3;
51052;PMS5003;37093;37.716;-122.060;2023-06-10T13:06:54;6;6;
51052;PMS5003;37093;37.716;-122.060;2023-06-10T13:09:23;5;5;
51052;PMS5003;37093;37.716;-122.060;2023-06-10T13:11:51;6;5;
51052;PMS5003;37093;37.716;-122.060;2023-06-10T13:14:20;12;7;
51052;PMS5003;37093;37.716;-122.060;2023-06-10T13:16:48;6;6;
51052;PMS5003;37093;37.716;-122.060;2023-06-10T13:19:17;4;4;
51052;PMS5003;37093;37.716;-122.060;2023-06-10T13:21:45;7;5;
51052;PMS5003;37093;37.716;-122.060;2023-06-10T13:24:14;9;7;
51052;PMS5003;37093;37.716;-122.060;2023-06-10T13:26:42;8;5;
51052;PMS5003;37093;37.716;-122.060;2023-06-10T13:29:11;15;4;
51052;PMS5003;37093;37.716;-122.060;2023-06-10T13:31:39;3;3;
51052;PMS5003;37093;37.716;-122.060;2023-06-10T13:34:08;5;3;
51052;PMS5003;37093;37.716;-122.060;2023-06-10T13:36:36;3;3;
51052;PMS5003;37093;37.716;-122.060;2023-06-10T13:39:05;3;3;
51052;PMS5003;37093;37.716;-122.060;2023-06-10T13:41:33;3;2;
51052;PMS5003;37093;37.716;-122.060;2023-06-10T13:44:03;5;4;
51052;PMS5003;37093;37.716;-122.060;2023-06-10T13:46:31;3;3;
51052;PMS5003;37093;37.716;-122.060;2023-06-10T13:49:00;5;5;
51052;PMS5003;37093;37.716;-122.060;2023-06-10T13:51:28;2;2;
51052;PMS5003;37093;37.716;-122.060;2023-06-10T13:53:57;4;4;
51052;PMS5003;37093;37.716;-122.060;2023-06-10T13:56:25;6;6;
51052;PMS5003;37093;37.716;-122.060;2023-06-10T13:58:54;5;5;
51052;PMS5003;37093;37.716;-122.060;2023-06-10T14:01:22;9;5;
51052;PMS5003;37093;37.716;-122.060;2023-06-10T14:03:52;7;4;
51052;PMS5003;37093;37.716;-122.060;2023-06-10T14:06:20;5;5;
51052;PMS5003;37093;37.716;-122.060;2023-06-10T14:08:48;6;4;
51052;PMS5003;37093;37.716;-122.060;2023-06-10T14:11:17;6;6;
51052;PMS5003;37093;37.716;-122.060;2023-06-10T14:15:57;5;5;
51052;PMS5003;37093;37.716;-122.060;2023-06-10T14:18:25;5;4;
51052;PMS5003;37093;37.716;-122.060;2023-06-10T14:20:54;4;3;
51052;PMS5003;37093;37.716;-122.060;2023-06-10T14:23:22;4;4;
51052;PMS5003;37093;37.716;-122.060;2023-06-10T14:25:51;6;4;
51052;PMS5003;37093;37.716;-122.060;2023-06-10T14:28:19;6;4;
51052;PMS5003;37093;37.716;-122.060;2023-06-10T14:30:48;6;5;
51052;PMS5003;37093;37.716;-122.060;2023-06-10T14:33:16;3;3;
51052;PMS5003;37093;37.716;-122.060;2023-06-10T14:35:45;3;3;
51052;PMS5003;37093;37.716;-122.060;2023-06-10T14:38:13;5;5;
51052;PMS5003;37093;37.716;-122.060;2023-06-10T14:40:42;3;2;
51052;PMS5003;37093;37.716;-122.060;2023-06-10T14:43:10;3;2;
51052;PMS5003;37093;37.716;-122.060;2023-06-10T14:45:39;3;3;
51052;PMS5003;37093;37.716;-122.060;2023-06-10T14:48:08;4;3;
51052;PMS5003;37093;37.716;-122.060;2023-06-10T14:50:36;6;5;
51052;PMS5003;37093;37.716;-122.060;2023-06-10T14:53:05;4;4;
51052;PMS5003;37093;37.716;-122.060;2023-06-10T14:55:33;5;4;
51052;PMS5003;37093;37.716;-122.060;2023-06-10T14:58:02;5;3;
51052;PMS5003;37093;37.716;-122.060;2023-06-10T15:00:30;4;3;
51052;PMS5003;37093;37.716;-122.060;2023-06-10T15:02:58;3;2;
51052;PMS5003;37093;37.716;-122.060;2023-06-10T15:05:27;2;2;
51052;PMS5003;37093;37.716;-122.060;2023-06-10T15:07:55;5;2;
51052;PMS5003;37093;37.716;-122.060;2023-06-10T15:10:24;4;3;
51052;PMS5003;37093;37.716;-122.060;2023-06-10T15:12:52;2;2;
51052;PMS5003;37093;37.716;-122.060;2023-06-10T15:15:21;2;2;
51052;PMS5003;37093;37.716;-122.060;2023-06-10T15:17:49;3;3;
51052;PMS5003;37093;37.716;-122.060;2023-06-10T15:20:18;3;3;
51052;PMS5003;37093;37.716;-122.060;2023-06-10T15:22:46;5;2;
51052;PMS5003;37093;37.716;-122.060;2023-06-10T15:25:15;5;3;
51052;PMS5003;37093;37.716;-122.060;2023-06-10T15:27:44;4;4;
51052;PMS5003;37093;37.716;-122.060;2023-06-10T15:30:12;3;3;
51052;PMS5003;37093;37.716;-122.060;2023-06-10T15:32:41;3;3;
51052;PMS5003;37093;37.716;-122.060;2023-06-10T15:35:09;4;4;
51052;PMS5003;37093;37.716;-122.060;2023-06-10T15:37:38;7;4;
51052;PMS5003;37093;37.716;-122.060;2023-06-10T15:40:07;3;3;
51052;PMS5003;37093;37.716;-122.060;2023-06-10T15:42:36;7;6;
51052;PMS5003;37093;37.716;-122.060;2023-06-10T15:45:05;5;3;
51052;PMS5003;37093;37.716;-122.060;2023-06-10T15:47:33;2;2;
51052;PMS5003;37093;37.716;-122.060;2023-06-10T15:50:02;5;3;
51052;PMS5003;37093;37.716;-122.060;2023-06-10T15:52:31;4;4;
51052;PMS5003;37093;37.716;-122.060;2023-06-10T15:55:00;4;4;
51052;PMS5003;37093;37.716;-122.060;2023-06-10T15:57:28;10;6;
51052;PMS5003;37093;37.716;-122.060;2023-06-10T15:59:57;6;5;
51052;PMS5003;37093;37.716;-122.060;2023-06-10T16:02:26;5;5;
51052;PMS5003;37093;37.716;-122.060;2023-06-10T16:04:54;5;5;
51052;PMS5003;37093;37.716;-122.060;2023-06-10T16:07:23;6;4;
51052;PMS5003;37093;37.716;-122.060;2023-06-10T16:09:51;3;3;
51052;PMS5003;37093;37.716;-122.060;2023-06-10T16:12:20;20;18;
51052;PMS5003;37093;37.716;-122.060;2023-06-10T16:14:48;9;9;
51052;PMS5003;37093;37.716;-122.060;2023-06-10T16:17:17;7;4;